Time;durP1;ratioP1;P1;durP2;ratioP2;P2;SDS_P1;SDS_P2;PMS_P1;PMS_P2;Temp;Humidity;BMP_temperature;BMP_pressure;BME280_temperature;BME280_humidity;BME280_pressure;Samples;Min_cycle;Max_cycle;Signal;HPM_P1;HPM_P2
2021/09/14 00:01:44;;;;;;;;;;;15.20;99.90;;;;;;5036140;28;19931;-73
2021/09/14 00:04:15;;;;;;;;;;;15.20;99.90;;;;;;5035177;28;20466;-72
2021/09/14 00:06:42;;;;;;;;;;;15.20;99.90;;;;;;5053410;28;20015;-73
2021/09/14 00:09:09;;;;;;;;;;;15.20;99.90;;;;;;5035291;28;19935;-73
2021/09/14 00:11:40;;;;;;;;;;;15.10;99.90;;;;;;5052899;28;19964;-73
2021/09/14 00:14:12;;;;;;;;;;;15.10;99.90;;;;;;5035291;28;19925;-73
2021/09/14 00:16:39;;;;;;;;;;;15.10;99.90;;;;;;5035216;28;20289;-72
2021/09/14 00:19:10;;;;;;;;;;;15.10;99.90;;;;;;5034808;28;20016;-73
2021/09/14 00:21:42;;;;;;;;;;;15.20;99.90;;;;;;5035640;28;19925;-73
2021/09/14 00:24:14;;;;;;;;;;;15.20;99.90;;;;;;5035401;28;20387;-73
2021/09/14 00:26:46;;;;;;;;;;;15.20;99.90;;;;;;5035654;28;19924;-72
2021/09/14 00:29:17;;;;;;;;;;;15.10;99.90;;;;;;5034554;28;20366;-73
2021/09/14 00:31:49;;;;;;;;;;;15.10;99.90;;;;;;5019045;28;19971;-72
2021/09/14 00:34:16;;;;;;;;;;;15.10;99.90;;;;;;5034158;28;20023;-73
2021/09/14 00:36:47;;;;;;;;;;;15.10;99.90;;;;;;5034656;28;19925;-72
2021/09/14 00:39:19;;;;;;;;;;;15.10;99.90;;;;;;5035477;28;19925;-73
2021/09/14 00:41:51;;;;;;;;;;;15.10;99.90;;;;;;5034485;28;19929;-73
2021/09/14 00:44:23;;;;;;;;;;;15.10;99.90;;;;;;5034101;28;19932;-73
2021/09/14 00:46:54;;;;;;;;;;;15.10;99.90;;;;;;5018740;28;20019;-72
2021/09/14 00:49:26;;;;;;;;;;;15.00;99.90;;;;;;5034333;28;19960;-72
2021/09/14 00:51:52;;;;;;;;;;;15.00;99.90;;;;;;5033985;28;19960;-72
2021/09/14 00:54:25;;;;;;;;;;;15.00;99.90;;;;;;5051721;28;19931;-72
2021/09/14 00:56:55;;;;;;;;;;;15.00;99.90;;;;;;5034347;28;19932;-72
2021/09/14 00:59:26;;;;;;;;;;;15.00;99.90;;;;;;5018188;28;19960;-72
2021/09/14 01:01:58;;;;;;;;;;;15.00;99.90;;;;;;5033891;28;20306;-73
2021/09/14 01:04:30;;;;;;;;;;;14.90;99.90;;;;;;5033168;28;19960;-72
2021/09/14 01:07:02;;;;;;;;;;;14.90;99.90;;;;;;5033541;28;20020;-73
2021/09/14 01:09:35;;;;;;;;;;;14.80;99.90;;;;;;5033203;28;19925;-72
2021/09/14 01:12:08;;;;;;;;;;;14.70;99.90;;;;;;5033975;28;19924;-72
2021/09/14 01:14:49;;;;;;;;;;;14.70;99.90;;;;;;5033671;28;20307;-72
2021/09/14 01:17:21;;;;;;;;;;;14.70;99.90;;;;;;5033998;28;20284;-73
2021/09/14 01:19:53;;;;;;;;;;;14.70;99.90;;;;;;5018268;28;19925;-72
2021/09/14 01:22:20;;;;;;;;;;;14.70;99.90;;;;;;5033414;28;20019;-72
2021/09/14 01:24:46;;;;;;;;;;;14.70;99.90;;;;;;5016940;28;19944;-73
2021/09/14 01:27:18;;;;;;;;;;;14.70;99.90;;;;;;5033485;28;20397;-73
2021/09/14 01:32:36;;;;;;;;;;;14.70;99.90;;;;;;5033160;28;20366;-73
2021/09/14 01:35:08;;;;;;;;;;;14.70;99.90;;;;;;5017752;28;19925;-72
2021/09/14 01:37:37;;;;;;;;;;;14.70;99.90;;;;;;5017627;28;19925;-72
2021/09/14 01:40:09;;;;;;;;;;;14.70;99.90;;;;;;5051560;28;20395;-73
2021/09/14 01:42:41;;;;;;;;;;;14.70;99.90;;;;;;5018246;28;19928;-73
2021/09/14 01:45:09;;;;;;;;;;;14.70;99.90;;;;;;5016933;28;19925;-73
2021/09/14 01:47:42;;;;;;;;;;;14.70;99.90;;;;;;5033816;28;19935;-72
2021/09/14 01:50:15;;;;;;;;;;;14.80;99.90;;;;;;5017929;28;20314;-72
2021/09/14 01:52:43;;;;;;;;;;;14.80;99.90;;;;;;5017275;28;19974;-73
2021/09/14 01:55:18;;;;;;;;;;;14.80;99.90;;;;;;5033390;28;19931;-72
2021/09/14 01:57:51;;;;;;;;;;;14.80;99.90;;;;;;5017989;28;20303;-73
2021/09/14 02:00:29;;;;;;;;;;;14.70;99.90;;;;;;5018436;28;20592;-72
2021/09/14 02:39:16;;;;;;;;;;;13.90;99.90;;;;;;5036669;28;20299;-73
2021/09/14 02:58:38;;;;;;;;;;;13.90;99.90;;;;;;5036547;28;19925;-73
2021/09/14 03:01:08;;;;;;;;;;;13.90;99.90;;;;;;5019951;28;20016;-73
2021/09/14 03:03:37;;;;;;;;;;;13.90;99.90;;;;;;5036281;28;19971;-73
2021/09/14 03:06:10;;;;;;;;;;;13.80;99.90;;;;;;5036041;28;19924;-73
2021/09/14 03:08:38;;;;;;;;;;;13.90;99.90;;;;;;5012476;28;19932;-72
2021/09/14 03:11:06;;;;;;;;;;;13.90;99.90;;;;;;5027358;28;20389;-72
2021/09/14 03:13:35;;;;;;;;;;;13.90;99.90;;;;;;5021628;28;20380;-72
2021/09/14 03:16:08;;;;;;;;;;;13.90;99.90;;;;;;5034168;28;19974;-72
2021/09/14 03:18:40;;;;;;;;;;;13.90;99.90;;;;;;5035324;28;19928;-73
2021/09/14 03:21:08;;;;;;;;;;;13.90;99.90;;;;;;5018730;28;20004;-72
2021/09/14 03:23:40;;;;;;;;;;;13.90;99.90;;;;;;5035249;28;19935;-73
2021/09/14 03:26:07;;;;;;;;;;;13.90;99.90;;;;;;5032445;28;20370;-72
2021/09/14 03:28:39;;;;;;;;;;;13.90;99.90;;;;;;5034145;28;19925;-72
2021/09/14 03:31:07;;;;;;;;;;;13.90;99.90;;;;;;5051511;28;19932;-72
2021/09/14 03:33:39;;;;;;;;;;;14.20;99.90;;;;;;5033594;28;20016;-72
2021/09/14 03:36:10;;;;;;;;;;;14.50;99.90;;;;;;5036479;28;20027;-72
2021/09/14 03:38:38;;;;;;;;;;;14.70;99.90;;;;;;5035654;28;19928;-72
2021/09/14 03:41:05;;;;;;;;;;;14.70;99.90;;;;;;5035486;28;20292;-74
2021/09/14 03:43:37;;;;;;;;;;;14.60;99.90;;;;;;5035565;28;19960;-71
2021/09/14 03:46:08;;;;;;;;;;;14.50;99.90;;;;;;5019587;28;19925;-71
2021/09/14 03:48:40;;;;;;;;;;;14.40;99.90;;;;;;5035562;28;19925;-73
2021/09/14 03:51:13;;;;;;;;;;;14.30;99.90;;;;;;5018993;28;20002;-72
2021/09/14 03:53:39;;;;;;;;;;;14.10;99.90;;;;;;5033919;28;20273;-72
2021/09/14 03:56:11;;;;;;;;;;;14.10;99.90;;;;;;5033514;28;19925;-71
2021/09/14 03:58:40;;;;;;;;;;;14.00;99.90;;;;;;5033654;28;19928;-70
2021/09/14 04:01:11;;;;;;;;;;;14.00;99.90;;;;;;5034857;28;20470;-71
2021/09/14 04:03:50;;;;;;;;;;;13.90;99.90;;;;;;5033977;28;19933;-71
2021/09/14 04:09:12;;;;;;;;;;;13.90;99.90;;;;;;5033466;28;19946;-71
2021/09/14 04:11:51;;;;;;;;;;;13.90;99.90;;;;;;5034446;28;20296;-71
2021/09/14 04:14:26;;;;;;;;;;;13.90;99.90;;;;;;5033253;28;19950;-71
2021/09/14 04:16:53;;;;;;;;;;;13.80;99.90;;;;;;5015314;28;20024;-71
2021/09/14 04:19:26;;;;;;;;;;;13.80;99.90;;;;;;5039579;28;19928;-70
2021/09/14 04:21:59;;;;;;;;;;;13.70;99.90;;;;;;5052352;28;19924;-70
2021/09/14 04:24:31;;;;;;;;;;;13.70;99.90;;;;;;5052542;28;19925;-71
2021/09/14 04:27:00;;;;;;;;;;;13.70;99.90;;;;;;5052965;28;20317;-70
2021/09/14 04:29:32;;;;;;;;;;;14.10;99.90;;;;;;5053866;28;19928;-72
2021/09/14 04:32:04;;;;;;;;;;;14.40;99.90;;;;;;5053606;28;19925;-72
2021/09/14 04:34:32;;;;;;;;;;;14.60;99.90;;;;;;5053794;28;19974;-71
2021/09/14 04:36:59;;;;;;;;;;;14.50;99.90;;;;;;5054900;28;19970;-70
2021/09/14 04:39:32;;;;;;;;;;;14.50;99.90;;;;;;5052956;28;19928;-71
2021/09/14 04:42:04;;;;;;;;;;;14.30;99.90;;;;;;5054509;28;20023;-71
2021/09/14 04:44:36;;;;;;;;;;;14.10;99.90;;;;;;5038253;28;19928;-70
2021/09/14 04:47:03;;;;;;;;;;;13.90;99.90;;;;;;5054365;28;20450;-70
2021/09/14 04:49:35;;;;;;;;;;;13.80;99.90;;;;;;5038482;28;19928;-71
2021/09/14 04:52:07;;;;;;;;;;;13.70;99.90;;;;;;5054319;28;19960;-70
2021/09/14 04:54:35;;;;;;;;;;;13.60;99.90;;;;;;5053717;28;19931;-70
2021/09/14 04:57:07;;;;;;;;;;;13.60;99.90;;;;;;5038377;28;20291;-71
2021/09/14 04:59:39;;;;;;;;;;;13.50;99.90;;;;;;5054149;28;19924;-70
2021/09/14 05:02:11;;;;;;;;;;;13.50;99.90;;;;;;5054381;28;19924;-71
2021/09/14 05:04:37;;;;;;;;;;;13.40;99.90;;;;;;5053900;28;20019;-70
2021/09/14 05:07:10;;;;;;;;;;;13.30;99.90;;;;;;5054113;28;19964;-71
2021/09/14 05:09:46;;;;;;;;;;;13.20;99.90;;;;;;5053924;28;19977;-70
2021/09/14 05:12:17;;;;;;;;;;;13.10;99.90;;;;;;5054074;28;20023;-71
2021/09/14 05:14:50;;;;;;;;;;;13.00;99.90;;;;;;5053656;28;19981;-71
2021/09/14 05:17:47;;;;;;;;;;;12.90;99.90;;;;;;5053982;28;19925;-71
2021/09/14 05:20:33;;;;;;;;;;;12.80;99.90;;;;;;5054055;28;20013;-71
2021/09/14 05:23:15;;;;;;;;;;;12.80;99.90;;;;;;5071842;28;20066;-71
2021/09/14 05:25:50;;;;;;;;;;;12.80;99.90;;;;;;5071654;28;20478;-71
2021/09/14 05:28:19;;;;;;;;;;;12.90;99.90;;;;;;5053880;28;20027;-71
2021/09/14 05:30:48;;;;;;;;;;;12.90;99.90;;;;;;5053553;28;20379;-71
2021/09/14 05:33:21;;;;;;;;;;;12.90;99.90;;;;;;5053702;28;20023;-71
2021/09/14 05:35:55;;;;;;;;;;;12.90;99.90;;;;;;5046062;28;19931;-71
2021/09/14 05:38:25;;;;;;;;;;;12.90;99.90;;;;;;5055444;28;19931;-72
2021/09/14 05:40:58;;;;;;;;;;;13.00;99.90;;;;;;5041672;28;19932;-70
2021/09/14 05:43:56;;;;;;;;;;;13.00;99.90;;;;;;5076345;28;19931;-71
2021/09/14 05:46:29;;;;;;;;;;;12.90;99.90;;;;;;5041479;28;20421;-70
2021/09/14 05:49:01;;;;;;;;;;;13.10;99.90;;;;;;5057551;28;20320;-70
2021/09/14 05:51:27;;;;;;;;;;;13.40;99.90;;;;;;5057382;28;20437;-71
2021/09/14 05:54:02;;;;;;;;;;;13.70;99.90;;;;;;5056944;28;19972;-71
2021/09/14 05:56:37;;;;;;;;;;;13.80;99.90;;;;;;5056955;28;19924;-71
2021/09/14 05:59:09;;;;;;;;;;;13.80;99.90;;;;;;5041226;28;20389;-71
2021/09/14 06:01:36;;;;;;;;;;;13.70;99.90;;;;;;5056666;28;20353;-71
2021/09/14 06:04:07;;;;;;;;;;;13.70;99.90;;;;;;5039836;28;19928;-71
2021/09/14 06:06:40;;;;;;;;;;;13.70;99.90;;;;;;5040612;28;19924;-71
2021/09/14 06:09:10;;;;;;;;;;;13.70;99.90;;;;;;5056297;28;19969;-70
2021/09/14 06:11:42;;;;;;;;;;;13.70;99.90;;;;;;5056563;28;20167;-70
2021/09/14 06:14:09;;;;;;;;;;;13.80;99.90;;;;;;5073749;28;19925;-73
2021/09/14 06:16:42;;;;;;;;;;;13.80;99.90;;;;;;5056187;28;19928;-71
2021/09/14 06:19:18;;;;;;;;;;;13.80;99.90;;;;;;5040973;28;20326;-71
2021/09/14 06:21:48;;;;;;;;;;;13.90;99.90;;;;;;5074252;28;20345;-71
2021/09/14 06:24:14;;;;;;;;;;;13.90;99.90;;;;;;5055626;28;19928;-71
2021/09/14 06:26:43;;;;;;;;;;;14.00;99.90;;;;;;5055944;28;19931;-72
2021/09/14 06:29:17;;;;;;;;;;;14.00;99.90;;;;;;5055924;28;20394;-71
2021/09/14 06:31:49;;;;;;;;;;;14.00;99.90;;;;;;5055756;28;19925;-71
2021/09/14 06:34:43;;;;;;;;;;;14.10;99.90;;;;;;5059666;28;19924;-71
2021/09/14 06:37:15;;;;;;;;;;;14.10;99.90;;;;;;5055829;28;19924;-72
2021/09/14 06:39:44;;;;;;;;;;;14.20;99.90;;;;;;5055725;28;20397;-71
2021/09/14 06:42:11;;;;;;;;;;;14.20;99.90;;;;;;5055745;28;19974;-71
2021/09/14 06:44:52;;;;;;;;;;;14.30;99.90;;;;;;5040881;28;19928;-71
2021/09/14 06:47:44;;;;;;;;;;;14.40;99.90;;;;;;5059384;28;19936;-71
2021/09/14 06:50:21;;;;;;;;;;;14.50;99.90;;;;;;5072917;28;20482;-72
2021/09/14 06:52:54;;;;;;;;;;;14.50;99.90;;;;;;5039591;28;19932;-70
2021/09/14 06:55:26;;;;;;;;;;;14.50;99.90;;;;;;5055039;28;19954;-72
2021/09/14 06:58:05;;;;;;;;;;;14.50;99.90;;;;;;5040645;28;19968;-71
2021/09/14 07:00:38;;;;;;;;;;;14.50;99.90;;;;;;5073406;28;19924;-72
2021/09/14 07:03:11;;;;;;;;;;;14.60;99.90;;;;;;5055283;28;19943;-70
2021/09/14 07:05:43;;;;;;;;;;;14.60;99.90;;;;;;5054901;28;19928;-71
2021/09/14 07:08:10;;;;;;;;;;;14.70;99.90;;;;;;5038681;28;19935;-71
2021/09/14 07:10:42;;;;;;;;;;;14.80;99.90;;;;;;5073103;28;20007;-71
2021/09/14 07:13:14;;;;;;;;;;;14.80;99.90;;;;;;5055205;28;20023;-71
2021/09/14 07:15:45;;;;;;;;;;;14.90;99.90;;;;;;5054516;28;19925;-71
2021/09/14 07:18:17;;;;;;;;;;;15.00;99.90;;;;;;5055067;28;19924;-71
2021/09/14 07:20:55;;;;;;;;;;;15.10;99.90;;;;;;5054990;28;19924;-71
2021/09/14 07:23:29;;;;;;;;;;;15.10;99.90;;;;;;5051523;28;20342;-70
2021/09/14 07:26:00;;;;;;;;;;;15.20;99.90;;;;;;5055460;28;19925;-71
2021/09/14 07:28:32;;;;;;;;;;;15.20;99.90;;;;;;5054680;28;20019;-71
2021/09/14 07:31:01;;;;;;;;;;;15.30;99.90;;;;;;5054779;28;20034;-71
2021/09/14 07:33:27;;;;;;;;;;;15.40;99.90;;;;;;5054883;28;20023;-71
2021/09/14 07:35:59;;;;;;;;;;;15.50;99.90;;;;;;5072202;28;19925;-71
2021/09/14 07:38:26;;;;;;;;;;;15.50;99.90;;;;;;5054936;28;19962;-71
2021/09/14 07:40:59;;;;;;;;;;;15.60;99.90;;;;;;5055663;28;19929;-72
2021/09/14 07:43:26;;;;;;;;;;;15.70;99.90;;;;;;5038073;28;20017;-72
2021/09/14 07:45:58;;;;;;;;;;;15.80;99.90;;;;;;5054069;28;19924;-72
2021/09/14 07:48:30;;;;;;;;;;;15.90;99.90;;;;;;5038668;28;20380;-72
2021/09/14 07:50:56;;;;;;;;;;;16.00;99.90;;;;;;5054697;28;19924;-72
2021/09/14 07:53:28;;;;;;;;;;;16.10;99.90;;;;;;5054383;28;19931;-72
2021/09/14 07:55:55;;;;;;;;;;;16.30;99.90;;;;;;5054077;28;19924;-73
2021/09/14 07:58:27;;;;;;;;;;;16.40;99.90;;;;;;5060165;28;20027;-72
2021/09/14 08:00:55;;;;;;;;;;;16.50;99.90;;;;;;5017421;28;20650;-72
2021/09/14 08:03:31;;;;;;;;;;;16.60;99.90;;;;;;5034611;28;19931;-72
2021/09/14 08:06:03;;;;;;;;;;;16.70;99.90;;;;;;5018269;28;19983;-73
2021/09/14 08:08:32;;;;;;;;;;;16.80;99.90;;;;;;5018190;28;20054;-72
2021/09/14 08:11:04;;;;;;;;;;;16.90;99.90;;;;;;5034231;28;20023;-72
2021/09/14 08:13:30;;;;;;;;;;;17.10;99.90;;;;;;5017819;28;19960;-72
2021/09/14 08:16:03;;;;;;;;;;;17.20;99.90;;;;;;5033477;28;20445;-73
2021/09/14 08:18:30;;;;;;;;;;;17.30;99.90;;;;;;5031286;28;20023;-72
2021/09/14 08:21:01;;;;;;;;;;;17.40;99.90;;;;;;5030772;28;19932;-72
2021/09/14 08:23:47;;;;;;;;;;;17.60;99.90;;;;;;5090857;28;20271;-72
2021/09/14 08:26:19;;;;;;;;;;;17.60;99.90;;;;;;5083505;28;20381;-72
2021/09/14 08:28:51;;;;;;;;;;;17.70;99.90;;;;;;5090475;28;20370;-72
2021/09/14 08:31:25;;;;;;;;;;;17.90;99.90;;;;;;5063679;28;19925;-72
2021/09/14 08:33:52;;;;;;;;;;;18.00;99.90;;;;;;5079073;28;19932;-73
2021/09/14 08:36:18;;;;;;;;;;;18.10;99.90;;;;;;5085713;28;19925;-72
2021/09/14 08:38:47;;;;;;;;;;;18.30;99.90;;;;;;5089134;28;19979;-72
2021/09/14 08:41:20;;;;;;;;;;;18.40;99.90;;;;;;5085932;28;20402;-72
2021/09/14 08:43:48;;;;;;;;;;;18.50;99.90;;;;;;5086980;28;19947;-71
2021/09/14 08:46:16;;;;;;;;;;;18.70;99.90;;;;;;5086197;28;19924;-71
2021/09/14 08:48:44;;;;;;;;;;;18.80;99.90;;;;;;5086525;28;19964;-72
2021/09/14 08:51:11;;;;;;;;;;;18.90;99.90;;;;;;5095063;28;19928;-72
2021/09/14 08:53:38;;;;;;;;;;;19.10;99.90;;;;;;5090041;28;19931;-73
2021/09/14 08:56:06;;;;;;;;;;;19.20;99.90;;;;;;5106163;28;20018;-71
2021/09/14 08:58:33;;;;;;;;;;;19.30;99.90;;;;;;5106916;28;19971;-73
2021/09/14 09:01:08;;;;;;;;;;;19.50;99.90;;;;;;5085375;28;19932;-72
2021/09/14 09:03:35;;;;;;;;;;;19.60;99.90;;;;;;5084779;28;19932;-71
2021/09/14 09:06:02;;;;;;;;;;;19.70;99.90;;;;;;5079846;28;19986;-72
2021/09/14 09:08:30;;;;;;;;;;;19.80;99.90;;;;;;5076947;28;19928;-72
2021/09/14 09:11:06;;;;;;;;;;;20.00;99.90;;;;;;5073322;28;19928;-72
2021/09/14 09:13:42;;;;;;;;;;;20.10;99.90;;;;;;5092178;28;20382;-72
2021/09/14 09:16:22;;;;;;;;;;;20.20;99.90;;;;;;5079189;28;19943;-73
2021/09/14 09:18:58;;;;;;;;;;;20.30;99.90;;;;;;5106458;28;19924;-72
2021/09/14 09:21:32;;;;;;;;;;;20.50;99.90;;;;;;5110021;28;20035;-72
2021/09/14 09:24:00;;;;;;;;;;;20.60;99.90;;;;;;5126505;27;20026;-72
2021/09/14 09:26:36;;;;;;;;;;;20.70;99.90;;;;;;5126673;27;19924;-71
2021/09/14 09:29:06;;;;;;;;;;;20.90;99.90;;;;;;5126016;28;19973;-72
2021/09/14 09:31:33;;;;;;;;;;;21.00;99.90;;;;;;5127034;28;19966;-71
2021/09/14 09:34:09;;;;;;;;;;;21.10;99.90;;;;;;5097715;28;19932;-72
2021/09/14 09:36:43;;;;;;;;;;;21.20;99.90;;;;;;5070038;28;19928;-73
2021/09/14 09:39:16;;;;;;;;;;;21.40;99.90;;;;;;5111054;28;20014;-72
2021/09/14 09:41:53;;;;;;;;;;;21.50;99.90;;;;;;5108086;28;20038;-72
2021/09/14 09:44:25;;;;;;;;;;;21.70;99.90;;;;;;5112750;28;19977;-72
2021/09/14 09:46:55;;;;;;;;;;;21.70;99.90;;;;;;5112915;28;20006;-72
2021/09/14 09:49:23;;;;;;;;;;;21.80;99.90;;;;;;5112817;28;19930;-72
2021/09/14 09:51:57;;;;;;;;;;;21.90;99.90;;;;;;5112364;28;19924;-73
2021/09/14 09:54:24;;;;;;;;;;;21.90;99.90;;;;;;5112115;28;20018;-72
2021/09/14 09:57:02;;;;;;;;;;;22.00;99.90;;;;;;5114018;28;19931;-72
2021/09/14 09:59:34;;;;;;;;;;;22.10;99.90;;;;;;5112271;28;19959;-72
2021/09/14 10:02:04;;;;;;;;;;;22.20;99.90;;;;;;5112182;28;19928;-72
2021/09/14 10:04:57;;;;;;;;;;;22.40;99.90;;;;;;5113193;28;20026;-71
2021/09/14 10:07:31;;;;;;;;;;;22.40;99.90;;;;;;5112221;28;19985;-71
2021/09/14 10:09:59;;;;;;;;;;;22.50;99.90;;;;;;5112043;28;19924;-72
2021/09/14 10:12:29;;;;;;;;;;;22.60;99.90;;;;;;5112270;28;20386;-72
2021/09/14 10:15:06;;;;;;;;;;;22.70;99.90;;;;;;5111876;28;19974;-72
2021/09/14 10:17:49;;;;;;;;;;;22.80;99.90;;;;;;5112315;28;19930;-71
2021/09/14 10:20:17;;;;;;;;;;;23.00;99.90;;;;;;5112125;28;19951;-71
2021/09/14 10:22:59;;;;;;;;;;;23.10;99.90;;;;;;5112014;28;19930;-71
2021/09/14 10:25:31;;;;;;;;;;;23.20;99.90;;;;;;5112700;28;19923;-72
2021/09/14 10:28:05;;;;;;;;;;;23.30;99.90;;;;;;5112128;28;19924;-71
2021/09/14 10:30:34;;;;;;;;;;;23.40;99.90;;;;;;5113404;28;19936;-71
2021/09/14 10:33:06;;;;;;;;;;;23.40;99.90;;;;;;5112048;28;20014;-73
2021/09/14 10:35:38;;;;;;;;;;;23.50;99.90;;;;;;5111515;28;20026;-72
2021/09/14 10:38:30;;;;;;;;;;;23.60;99.90;;;;;;5111768;28;19924;-72
2021/09/14 10:40:58;;;;;;;;;;;23.70;99.90;;;;;;5112836;28;20417;-71
2021/09/14 10:43:25;;;;;;;;;;;23.80;99.90;;;;;;5113419;28;19924;-71
2021/09/14 10:45:52;;;;;;;;;;;23.90;99.90;;;;;;5110870;28;20016;-71
2021/09/14 10:48:29;;;;;;;;;;;24.00;99.90;;;;;;5113592;27;19974;-72
2021/09/14 10:51:07;;;;;;;;;;;24.10;99.90;;;;;;5106406;28;20035;-71
2021/09/14 10:53:36;;;;;;;;;;;24.30;99.90;;;;;;5075898;28;19947;-72
2021/09/14 10:56:12;;;;;;;;;;;24.40;99.90;;;;;;5071286;28;20335;-73
2021/09/14 10:58:44;;;;;;;;;;;24.40;99.90;;;;;;5056280;28;20373;-73
2021/09/14 11:01:12;;;;;;;;;;;24.50;99.90;;;;;;5081784;28;20449;-73
2021/09/14 11:03:39;;;;;;;;;;;24.70;99.90;;;;;;5091412;28;20125;-73
2021/09/14 11:06:12;;;;;;;;;;;24.80;99.90;;;;;;5092447;28;19932;-73
2021/09/14 11:08:56;;;;;;;;;;;24.80;99.90;;;;;;5091922;28;19931;-73
2021/09/14 11:11:28;;;;;;;;;;;24.90;99.90;;;;;;5091457;28;19930;-73
2021/09/14 11:13:59;;;;;;;;;;;25.00;99.90;;;;;;5091029;28;20030;-72
2021/09/14 11:16:33;;;;;;;;;;;25.10;99.90;;;;;;5091414;28;20023;-72
2021/09/14 11:19:04;;;;;;;;;;;25.20;99.90;;;;;;5075301;28;19924;-73
2021/09/14 11:21:42;;;;;;;;;;;25.30;99.90;;;;;;5092537;28;19939;-73
2021/09/14 11:24:19;;;;;;;;;;;25.40;99.90;;;;;;5092086;28;19924;-72
2021/09/14 11:26:51;;;;;;;;;;;25.30;99.90;;;;;;5097128;28;19936;-74
2021/09/14 11:29:18;;;;;;;;;;;25.40;99.90;;;;;;5091237;28;19924;-73
2021/09/14 11:31:49;;;;;;;;;;;25.40;99.90;;;;;;5089218;28;20408;-73
2021/09/14 11:34:21;;;;;;;;;;;25.50;99.90;;;;;;5089064;28;19924;-73
2021/09/14 11:36:53;;;;;;;;;;;25.50;99.90;;;;;;5090421;28;19934;-73
2021/09/14 11:39:34;;;;;;;;;;;25.50;99.90;;;;;;5088976;28;19932;-73
2021/09/14 11:42:01;;;;;;;;;;;25.50;99.90;;;;;;5089068;28;20359;-73
2021/09/14 11:44:33;;;;;;;;;;;25.60;99.90;;;;;;5074167;28;20481;-72
2021/09/14 11:47:08;;;;;;;;;;;25.60;99.90;;;;;;5091986;28;19924;-73
2021/09/14 11:49:49;;;;;;;;;;;25.70;99.90;;;;;;5075475;28;19930;-72
2021/09/14 11:52:17;;;;;;;;;;;25.70;99.90;;;;;;5091592;28;20020;-72
2021/09/14 11:54:48;;;;;;;;;;;25.80;99.90;;;;;;5091352;28;20310;-73
2021/09/14 11:57:21;;;;;;;;;;;25.90;99.90;;;;;;5092468;28;19933;-72
2021/09/14 11:59:53;;;;;;;;;;;25.90;99.90;;;;;;5092622;28;20336;-73
2021/09/14 12:02:24;;;;;;;;;;;25.80;99.90;;;;;;5091230;28;20305;-72
2021/09/14 12:05:00;;;;;;;;;;;25.90;99.90;;;;;;5074953;28;20003;-73
2021/09/14 12:07:31;;;;;;;;;;;25.90;99.90;;;;;;5075264;28;20372;-73
2021/09/14 12:10:06;;;;;;;;;;;26.00;99.90;;;;;;5091270;28;19932;-73
2021/09/14 12:12:40;;;;;;;;;;;26.10;99.90;;;;;;5092670;28;20493;-74
2021/09/14 12:15:11;;;;;;;;;;;26.20;99.90;;;;;;5092182;28;19963;-73
2021/09/14 12:17:43;;;;;;;;;;;26.40;99.90;;;;;;5091512;28;20285;-72
2021/09/14 12:20:10;;;;;;;;;;;26.40;99.50;;;;;;5091255;28;19930;-72
2021/09/14 12:22:36;;;;;;;;;;;26.50;99.90;;;;;;5092217;28;19977;-72
2021/09/14 12:25:03;;;;;;;;;;;26.40;99.90;;;;;;5090773;28;20019;-72
2021/09/14 12:27:30;;;;;;;;;;;26.50;99.90;;;;;;5092388;28;20370;-72
2021/09/14 12:29:57;;;;;;;;;;;26.40;99.10;;;;;;5092125;28;19932;-72
2021/09/14 12:32:23;;;;;;;;;;;26.30;98.80;;;;;;5091259;28;19970;-72
2021/09/14 12:34:55;;;;;;;;;;;26.30;98.80;;;;;;5074683;28;19924;-72
2021/09/14 12:37:22;;;;;;;;;;;26.30;98.10;;;;;;5090979;28;20386;-72
2021/09/14 12:39:48;;;;;;;;;;;26.30;99.90;;;;;;5074076;28;19959;-72
2021/09/14 12:42:20;;;;;;;;;;;26.40;98.60;;;;;;5092268;28;19964;-72
2021/09/14 12:44:47;;;;;;;;;;;26.50;98.50;;;;;;5090626;28;20040;-72
2021/09/14 12:47:19;;;;;;;;;;;26.60;98.70;;;;;;5090905;28;19928;-72
2021/09/14 12:49:50;;;;;;;;;;;26.60;98.30;;;;;;5090897;28;19924;-72
2021/09/14 12:52:17;;;;;;;;;;;26.70;97.50;;;;;;5091150;28;19925;-72
2021/09/14 12:54:48;;;;;;;;;;;26.70;98.00;;;;;;5090356;28;19924;-72
2021/09/14 12:57:15;;;;;;;;;;;26.80;98.90;;;;;;5090822;28;20027;-73
2021/09/14 12:59:42;;;;;;;;;;;26.90;98.90;;;;;;5090793;28;20324;-72
2021/09/14 13:02:13;;;;;;;;;;;27.00;98.10;;;;;;5092097;28;20019;-72
2021/09/14 13:04:45;;;;;;;;;;;27.10;97.20;;;;;;5091861;28;19924;-72
2021/09/14 13:07:17;;;;;;;;;;;27.10;96.50;;;;;;5083767;28;20382;-72
2021/09/14 13:09:48;;;;;;;;;;;27.00;96.70;;;;;;5094107;28;20015;-72
2021/09/14 13:12:22;;;;;;;;;;;27.00;97.40;;;;;;5070107;28;19963;-73
2021/09/14 13:17:44;;;;;;;;;;;27.20;97.10;;;;;;5073299;28;20027;-74
2021/09/14 13:20:15;;;;;;;;;;;27.20;96.90;;;;;;5057707;28;19925;-72
2021/09/14 13:22:42;;;;;;;;;;;27.20;96.00;;;;;;5073185;28;20019;-72
2021/09/14 13:25:09;;;;;;;;;;;27.30;95.80;;;;;;5074520;28;19924;-73
2021/09/14 13:27:36;;;;;;;;;;;27.40;96.10;;;;;;5073334;28;19960;-72
2021/09/14 13:30:03;;;;;;;;;;;27.50;96.60;;;;;;5077744;28;19932;-72
2021/09/14 13:32:30;;;;;;;;;;;27.50;95.50;;;;;;5076278;28;19935;-73
2021/09/14 13:35:01;;;;;;;;;;;27.50;94.60;;;;;;5092909;28;19977;-73
2021/09/14 13:37:28;;;;;;;;;;;27.50;94.20;;;;;;5076813;28;19924;-72
2021/09/14 13:39:55;;;;;;;;;;;27.30;94.40;;;;;;5076249;28;19924;-72
2021/09/14 13:42:26;;;;;;;;;;;27.30;94.40;;;;;;5092777;28;19967;-72
2021/09/14 13:47:24;;;;;;;;;;;27.20;93.60;;;;;;5093406;28;19928;-72
2021/09/14 13:49:51;;;;;;;;;;;27.20;93.90;;;;;;5093286;28;20162;-73
2021/09/14 13:52:23;;;;;;;;;;;27.10;93.60;;;;;;5077066;28;19924;-73
2021/09/14 13:54:49;;;;;;;;;;;27.10;93.40;;;;;;5092663;28;19924;-73
2021/09/14 13:57:16;;;;;;;;;;;27.20;94.00;;;;;;5093697;28;20037;-73
2021/09/14 13:59:48;;;;;;;;;;;27.30;93.40;;;;;;5076027;28;19928;-73
2021/09/14 14:02:14;;;;;;;;;;;27.50;92.90;;;;;;5092877;28;20030;-74
2021/09/14 14:04:46;;;;;;;;;;;27.60;93.60;;;;;;5092534;28;19924;-73
2021/09/14 14:07:18;;;;;;;;;;;27.70;94.20;;;;;;5094597;28;19924;-73
2021/09/14 14:09:50;;;;;;;;;;;27.80;93.50;;;;;;5092056;28;20023;-73
2021/09/14 14:12:21;;;;;;;;;;;27.80;94.00;;;;;;5092409;28;19931;-73
2021/09/14 14:14:53;;;;;;;;;;;27.70;92.80;;;;;;5086313;28;19928;-74
2021/09/14 14:17:20;;;;;;;;;;;27.70;93.60;;;;;;5091983;28;19964;-73
2021/09/14 14:19:46;;;;;;;;;;;27.70;93.40;;;;;;5090589;28;20363;-73
2021/09/14 14:22:13;;;;;;;;;;;27.60;92.40;;;;;;5093542;28;19950;-73
2021/09/14 14:24:45;;;;;;;;;;;27.50;93.00;;;;;;5077799;28;20375;-73
2021/09/14 14:27:17;;;;;;;;;;;27.30;91.90;;;;;;5088791;28;20366;-73
2021/09/14 14:29:48;;;;;;;;;;;27.20;93.00;;;;;;5079622;28;19924;-73
2021/09/14 14:32:20;;;;;;;;;;;27.10;94.00;;;;;;5067986;28;20413;-74
2021/09/14 14:34:47;;;;;;;;;;;27.30;94.80;;;;;;5087526;28;20027;-73
2021/09/14 14:37:18;;;;;;;;;;;27.50;93.30;;;;;;5072215;28;19968;-74
2021/09/14 14:39:50;;;;;;;;;;;27.70;91.90;;;;;;5072353;28;20282;-72
2021/09/14 14:42:17;;;;;;;;;;;28.10;91.90;;;;;;5073330;28;19978;-73
2021/09/14 14:44:44;;;;;;;;;;;28.30;91.70;;;;;;5072405;28;19924;-75
2021/09/14 14:47:11;;;;;;;;;;;28.50;91.30;;;;;;5084332;28;20490;-74
2021/09/14 14:49:43;;;;;;;;;;;28.80;92.30;;;;;;5068666;28;19931;-74
2021/09/14 14:52:15;;;;;;;;;;;29.00;90.60;;;;;;5079437;28;20466;-73
2021/09/14 14:54:46;;;;;;;;;;;29.30;90.40;;;;;;5075462;28;19928;-72
2021/09/14 14:57:18;;;;;;;;;;;29.40;90.30;;;;;;5082208;28;19977;-75
2021/09/14 14:59:45;;;;;;;;;;;29.50;89.50;;;;;;5080984;28;19970;-72
2021/09/14 15:02:12;;;;;;;;;;;29.60;86.50;;;;;;5079462;28;19976;-72
2021/09/14 15:04:39;;;;;;;;;;;29.70;88.80;;;;;;5080384;28;19924;-73
2021/09/14 15:07:11;;;;;;;;;;;30.00;87.00;;;;;;5065386;28;20020;-72
2021/09/14 15:09:38;;;;;;;;;;;30.20;86.20;;;;;;5081808;28;20023;-73
2021/09/14 15:12:05;;;;;;;;;;;30.50;85.70;;;;;;5080907;28;20703;-72
2021/09/14 15:14:32;;;;;;;;;;;30.60;84.10;;;;;;5080471;28;19954;-73
2021/09/14 15:17:03;;;;;;;;;;;30.70;81.50;;;;;;5079422;28;20011;-72
2021/09/14 15:19:30;;;;;;;;;;;30.70;82.00;;;;;;5080277;28;19959;-73
2021/09/14 15:22:02;;;;;;;;;;;30.80;82.10;;;;;;5065586;28;19925;-73
2021/09/14 15:24:34;;;;;;;;;;;30.90;80.60;;;;;;5080237;28;20022;-72
2021/09/14 15:27:01;;;;;;;;;;;31.00;79.20;;;;;;5082408;28;20588;-73
2021/09/14 15:29:33;;;;;;;;;;;31.20;79.20;;;;;;5081879;28;19925;-74
2021/09/14 15:32:06;;;;;;;;;;;31.40;78.00;;;;;;5079921;28;19928;-72
2021/09/14 15:34:37;;;;;;;;;;;31.40;80.50;;;;;;5076838;28;19935;-72
2021/09/14 15:37:10;;;;;;;;;;;31.40;80.30;;;;;;5080911;28;19956;-73
2021/09/14 15:39:43;;;;;;;;;;;31.40;76.40;;;;;;5080202;28;19934;-72
2021/09/14 15:42:15;;;;;;;;;;;31.70;76.60;;;;;;5080588;28;19943;-73
2021/09/14 15:44:47;;;;;;;;;;;31.60;76.90;;;;;;5077348;28;20288;-73